Time;durP1;ratioP1;P1;durP2;ratioP2;P2;SDS_P1;SDS_P2;PMS_P1;PMS_P2;Temp;Humidity;BMP_temperature;BMP_pressure;BME280_temperature;BME280_humidity;BME280_pressure;Samples;Min_cycle;Max_cycle;Signal;HPM_P1;HPM_P2
2022/06/01 00:00:25;;;;;;;;;;;;;;;12.99;60.38;96682.78;30001;983;1868;-55
2022/06/01 00:00:56;;;;;;;;;;;;;;;12.98;59.82;96681.16;30001;982;1868;-61
2022/06/01 00:01:27;;;;;;;;;;;;;;;13.00;59.59;96684.38;30001;982;1882;-62
2022/06/01 00:01:57;;;;;;;;;;;;;;;13.01;59.17;96680.53;30001;982;1877;-63
2022/06/01 00:02:28;;;;;;;;;;;;;;;13.03;58.92;96681.84;30001;982;1882;-62
2022/06/01 00:02:59;;;;;;;;;;;;;;;13.04;58.57;96679.91;30001;982;1877;-56
2022/06/01 00:03:32;;;;;;;;;;;;;;;13.05;58.48;96681.53;30001;983;1867;-63
2022/06/01 00:04:03;;;;;;;;;;;;;;;13.06;58.61;96677.69;30001;983;1868;-56
2022/06/01 00:04:34;;;;;;;;;;;;;;;13.09;58.85;96682.50;30001;983;1881;-63
2022/06/01 00:05:05;;;;;;;;;;;;;;;13.09;58.59;96687.97;30001;983;1877;-62
2022/06/01 00:05:36;;;;;;;;;;;;;;;13.12;58.77;96681.88;30001;983;1790;-63
2022/06/01 00:06:07;;;;;;;;;;;;;;;13.13;58.72;96683.50;30001;983;1877;-63
2022/06/01 00:06:42;;;;;;;;;;;;;;;13.14;58.87;96681.56;30001;983;1881;-63
2022/06/01 00:07:13;;;;;;;;;;;;;;;13.13;59.02;96680.78;30001;983;1864;-63
2022/06/01 00:07:44;;;;;;;;;;;;;;;13.13;58.86;96682.69;30001;983;1873;-62
2022/06/01 00:08:15;;;;;;;;;;;;;;;13.13;58.59;96683.50;30001;983;1877;-64
2022/06/01 00:08:46;;;;;;;;;;;;;;;13.13;59.25;96683.50;30001;982;1881;-63
2022/06/01 00:09:16;;;;;;;;;;;;;;;13.11;59.33;96680.28;30001;982;1877;-62
2022/06/01 00:09:47;;;;;;;;;;;;;;;13.12;59.31;96686.53;30001;982;1882;-64
2022/06/01 00:10:18;;;;;;;;;;;;;;;13.10;59.14;96678.69;30001;982;1877;-64
2022/06/01 00:10:50;;;;;;;;;;;;;;;13.11;59.23;96685.72;30001;983;1881;-65
2022/06/01 00:11:21;;;;;;;;;;;;;;;13.12;58.98;96678.37;30001;983;1877;-64
2022/06/01 00:11:53;;;;;;;;;;;;;;;13.14;58.85;96674.22;30001;983;1868;-62
2022/06/01 00:12:24;;;;;;;;;;;;;;;13.16;58.84;96676.66;30001;983;1868;-62
2022/06/01 00:12:55;;;;;;;;;;;;;;;13.18;59.06;96674.38;30001;983;1881;-62
2022/06/01 00:13:27;;;;;;;;;;;;;;;13.21;58.66;96679.22;30001;983;1877;-63
2022/06/01 00:13:58;;;;;;;;;;;;;;;13.21;58.45;96669.13;30001;983;1868;-62
2022/06/01 00:14:29;;;;;;;;;;;;;;;13.19;59.86;96668.63;30001;983;1868;-64
2022/06/01 00:15:03;;;;;;;;;;;;;;;13.17;59.18;96673.59;30001;983;1868;-62
2022/06/01 00:15:34;;;;;;;;;;;;;;;13.14;59.84;96673.41;30001;983;1868;-63
2022/06/01 00:16:08;;;;;;;;;;;;;;;13.13;59.50;96669.87;30001;982;1882;-61
2022/06/01 00:16:39;;;;;;;;;;;;;;;13.14;58.65;96663.31;30001;982;1877;-62
2022/06/01 00:17:10;;;;;;;;;;;;;;;13.16;59.03;96665.75;30001;982;1882;-57
2022/06/01 00:17:41;;;;;;;;;;;;;;;13.13;59.64;96666.34;30001;982;1877;-62
2022/06/01 00:18:14;;;;;;;;;;;;;;;13.11;59.29;96665.84;30001;982;1882;-63
2022/06/01 00:18:45;;;;;;;;;;;;;;;13.09;60.25;96666.16;30001;983;1877;-63
2022/06/01 00:19:16;;;;;;;;;;;;;;;13.09;59.29;96660.72;30001;983;1881;-63
2022/06/01 00:19:47;;;;;;;;;;;;;;;13.08;59.23;96664.56;30001;983;1863;-61
2022/06/01 00:20:18;;;;;;;;;;;;;;;13.08;59.68;96661.84;30001;983;1872;-61
2022/06/01 00:20:50;;;;;;;;;;;;;;;13.08;59.24;96659.12;30001;983;1876;-56
2022/06/01 00:21:20;;;;;;;;;;;;;;;13.09;58.76;96660.72;30001;983;1881;-63
2022/06/01 00:22:41;;;;;;;;;;;;;;;13.12;58.26;96660.09;30001;983;1868;-63
2022/06/01 00:23:12;;;;;;;;;;;;;;;13.15;58.09;96658.66;30001;983;1855;-57
2022/06/01 00:23:43;;;;;;;;;;;;;;;13.19;58.16;96665.91;30001;982;1881;-57
2022/06/01 00:24:13;;;;;;;;;;;;;;;13.22;58.25;96669.91;30001;982;1877;-63
2022/06/01 00:24:48;;;;;;;;;;;;;;;13.22;58.05;96665.28;30001;972;1902;-57
2022/06/01 00:25:19;;;;;;;;;;;;;;;13.20;58.00;96662.06;30001;982;1877;-56
2022/06/01 00:25:50;;;;;;;;;;;;;;;13.21;58.37;96666.38;30001;982;1882;-63
2022/06/01 00:26:21;;;;;;;;;;;;;;;13.23;58.42;96666.88;30001;983;1877;-56
2022/06/01 00:26:52;;;;;;;;;;;;;;;13.26;58.41;96663.53;30001;983;1881;-61
2022/06/01 00:27:23;;;;;;;;;;;;;;;13.28;58.00;96669.47;30001;983;1877;-62
2022/06/01 00:27:54;;;;;;;;;;;;;;;13.28;58.19;96669.47;30001;983;1881;-55
2022/06/01 00:28:25;;;;;;;;;;;;;;;13.25;59.14;96658.41;30001;983;1863;-62
2022/06/01 00:28:59;;;;;;;;;;;;;;;13.20;59.23;96667.50;30001;983;1873;-62
2022/06/01 00:29:32;;;;;;;;;;;;;;;13.16;58.95;96666.56;30001;983;1877;-56
2022/06/01 00:30:04;;;;;;;;;;;;;;;13.13;60.10;96667.16;30001;983;1881;-63
2022/06/01 00:30:36;;;;;;;;;;;;;;;13.10;59.38;96662.34;30001;983;1877;-63
2022/06/01 00:31:07;;;;;;;;;;;;;;;13.09;59.78;96666.16;30001;982;1881;-62
2022/06/01 00:31:38;;;;;;;;;;;;;;;13.08;59.63;96664.56;30001;982;1877;-63
2022/06/01 00:32:13;;;;;;;;;;;;;;;13.06;59.65;96677.69;30001;982;1881;-64
2022/06/01 00:32:45;;;;;;;;;;;;;;;13.04;60.08;96671.75;30001;982;1864;-62
2022/06/01 00:33:19;;;;;;;;;;;;;;;13.02;59.73;96676.72;30001;982;1873;-55
2022/06/01 00:33:50;;;;;;;;;;;;;;;12.99;60.18;96680.84;30001;983;1876;-62
2022/06/01 00:34:23;;;;;;;;;;;;;;;12.99;60.15;96685.50;30001;983;1881;-63
2022/06/01 00:34:56;;;;;;;;;;;;;;;12.97;60.35;96680.38;30001;983;1876;-62
2022/06/01 00:35:29;;;;;;;;;;;;;;;12.97;60.27;96685.00;30001;983;1881;-56
2022/06/01 00:36:03;;;;;;;;;;;;;;;12.96;60.29;96680.69;30001;983;1877;-61
2022/06/01 00:36:42;;;;;;;;;;;;;;;12.94;61.07;96682.91;30001;983;1881;-55
2022/06/01 00:37:15;;;;;;;;;;;;;;;12.90;61.41;96690.09;30001;983;1877;-62
2022/06/01 00:37:49;;;;;;;;;;;;;;;12.88;61.42;96692.31;30001;982;1868;-61
2022/06/01 00:38:21;;;;;;;;;;;;;;;12.86;61.08;96684.47;30001;982;1868;-63
2022/06/01 00:38:52;;;;;;;;;;;;;;;12.90;60.69;96690.91;30001;982;1881;-55
2022/06/01 00:39:23;;;;;;;;;;;;;;;12.91;60.47;96687.06;30001;982;1877;-63
2022/06/01 00:39:54;;;;;;;;;;;;;;;12.92;60.33;96683.22;30001;982;1882;-56
2022/06/01 00:40:27;;;;;;;;;;;;;;;12.95;60.02;96687.25;30001;982;1878;-63
2022/06/01 00:40:57;;;;;;;;;;;;;;;12.97;59.99;96685.00;30001;982;1882;-56
2022/06/01 00:41:29;;;;;;;;;;;;;;;12.97;59.71;96679.56;30001;983;1877;-56
2022/06/01 00:42:14;;;;;;;;;;;;;;;12.98;59.89;96681.97;30001;983;1881;-56
2022/06/01 00:42:47;;;;;;;;;;;;;;;13.01;60.22;96686.00;30001;983;1864;-62
2022/06/01 00:43:25;;;;;;;;;;;;;;;13.03;59.93;96689.22;30001;983;1873;-63
2022/06/01 00:43:56;;;;;;;;;;;;;;;13.02;59.50;96685.69;30001;983;1877;-62
2022/06/01 00:44:27;;;;;;;;;;;;;;;13.04;59.61;96677.19;30001;983;1868;-57
2022/06/01 00:44:58;;;;;;;;;;;;;;;13.04;59.35;96688.09;30001;964;1887;-63
2022/06/01 00:45:30;;;;;;;;;;;;;;;13.05;59.50;96692.44;30001;982;1881;-62
2022/06/01 00:46:01;;;;;;;;;;;;;;;13.06;59.16;96685.87;30001;982;1877;-56
2022/06/01 00:46:33;;;;;;;;;;;;;;;13.06;59.28;96688.59;30001;982;1771;-61
2022/06/01 00:47:04;;;;;;;;;;;;;;;13.06;59.00;96683.94;30001;982;1868;-62
2022/06/01 00:47:37;;;;;;;;;;;;;;;13.06;59.36;96678.50;30001;982;1868;-62
2022/06/01 00:48:08;;;;;;;;;;;;;;;13.06;59.16;96688.59;30001;982;1855;-62
2022/06/01 00:48:43;;;;;;;;;;;;;;;13.07;59.16;96687.47;30001;983;1881;-62
2022/06/01 00:49:21;;;;;;;;;;;;;;;13.08;59.24;96680.91;30001;983;1876;-56
2022/06/01 00:49:58;;;;;;;;;;;;;;;13.11;59.08;96680.28;30001;983;1881;-63
2022/06/01 00:50:33;;;;;;;;;;;;;;;13.12;58.66;96678.37;30001;983;1864;-62
2022/06/01 00:51:03;;;;;;;;;;;;;;;13.12;58.88;96676.44;30001;983;1872;-62
2022/06/01 00:51:35;;;;;;;;;;;;;;;13.12;59.04;96681.88;30001;983;1877;-62
2022/06/01 00:52:07;;;;;;;;;;;;;;;13.12;59.31;96683.81;30001;983;1882;-61
2022/06/01 00:52:45;;;;;;;;;;;;;;;13.12;58.89;96681.09;30001;983;1877;-63
2022/06/01 00:53:19;;;;;;;;;;;;;;;13.13;58.55;96675.31;30001;982;1881;-55
2022/06/01 00:53:52;;;;;;;;;;;;;;;13.12;58.47;96679.16;30001;982;1877;-62
2022/06/01 00:54:24;;;;;;;;;;;;;;;13.12;58.55;96681.88;30001;982;1868;-62
2022/06/01 00:54:55;;;;;;;;;;;;;;;13.12;58.42;96681.88;30001;982;1868;-61
2022/06/01 00:55:28;;;;;;;;;;;;;;;13.13;58.43;96678.06;30001;982;1882;-62
2022/06/01 00:56:19;;;;;;;;;;;;;;;13.12;58.48;96681.88;30001;982;1877;-63
2022/06/01 00:56:56;;;;;;;;;;;;;;;13.12;58.57;96675.63;30001;983;1881;-62
2022/06/01 00:57:27;;;;;;;;;;;;;;;13.11;58.41;96680.28;30001;983;1877;-63
2022/06/01 00:58:12;;;;;;;;;;;;;;;13.10;58.74;96678.69;30001;983;1881;-62
2022/06/01 00:58:44;;;;;;;;;;;;;;;13.09;58.60;96683.31;30001;983;1877;-62
2022/06/01 00:59:19;;;;;;;;;;;;;;;13.10;58.67;96675.94;30001;983;1868;-62
2022/06/01 00:59:53;;;;;;;;;;;;;;;13.10;58.37;96678.69;30001;983;1868;-56
2022/06/01 01:00:25;;;;;;;;;;;;;;;13.09;58.42;96680.59;30001;982;1881;-55
2022/06/01 01:00:57;;;;;;;;;;;;;;;13.11;58.44;96684.94;30001;982;1877;-56
2022/06/01 01:01:30;;;;;;;;;;;;;;;13.09;58.90;96682.50;30001;982;1881;-56
2022/06/01 01:02:07;;;;;;;;;;;;;;;13.09;58.78;96682.50;30001;982;1877;-57
2022/06/01 01:02:38;;;;;;;;;;;;;;;13.07;59.05;96685.56;30001;982;1868;-56
2022/06/01 01:03:11;;;;;;;;;;;;;;;13.06;59.03;96688.59;30001;982;1869;-57
2022/06/01 01:03:45;;;;;;;;;;;;;;;13.06;58.83;96683.94;30001;983;1881;-55
2022/06/01 01:04:16;;;;;;;;;;;;;;;13.05;59.01;96682.34;30001;983;1876;-56
2022/06/01 01:04:47;;;;;;;;;;;;;;;13.04;59.46;96685.37;30001;983;1881;-62
2022/06/01 01:05:19;;;;;;;;;;;;;;;13.03;59.35;96684.56;30001;983;1877;-64
2022/06/01 01:06:06;;;;;;;;;;;;;;;13.03;59.53;96690.00;30001;983;1881;-62
2022/06/01 01:06:38;;;;;;;;;;;;;;;13.01;59.80;96684.06;30001;983;1877;-63
2022/06/01 01:07:12;;;;;;;;;;;;;;;13.02;59.42;96684.87;30001;983;1868;-62
2022/06/01 01:07:44;;;;;;;;;;;;;;;13.00;59.34;96682.47;30001;983;1868;-63
2022/06/01 01:08:15;;;;;;;;;;;;;;;13.01;59.38;96681.34;30001;982;1881;-62
2022/06/01 01:08:49;;;;;;;;;;;;;;;13.01;59.45;96677.81;30001;982;1877;-63
2022/06/01 01:09:19;;;;;;;;;;;;;;;13.02;59.24;96682.97;30001;982;1882;-63
2022/06/01 01:09:50;;;;;;;;;;;;;;;13.03;59.05;96678.31;30001;985;1877;-55
2022/06/01 01:10:21;;;;;;;;;;;;;;;13.01;59.21;96680.53;30001;982;1869;-63
2022/06/01 01:10:55;;;;;;;;;;;;;;;13.02;59.40;96679.44;30001;983;1868;-63
2022/06/01 01:11:29;;;;;;;;;;;;;;;13.01;59.29;96686.81;30001;983;1881;-62
2022/06/01 01:12:05;;;;;;;;;;;;;;;13.00;59.65;96684.38;30001;983;1877;-63
2022/06/01 01:13:25;;;;;;;;;;;;;;;13.01;59.67;96680.53;30001;983;1877;-61
2022/06/01 01:13:57;;;;;;;;;;;;;;;13.00;59.63;96682.47;30001;973;1886;-61
2022/06/01 01:14:30;;;;;;;;;;;;;;;13.00;59.51;96676.22;30001;983;1868;-63
2022/06/01 01:15:01;;;;;;;;;;;;;;;13.01;59.51;96675.09;30001;983;1881;-63
2022/06/01 01:15:34;;;;;;;;;;;;;;;12.98;60.02;96675.72;30001;982;1877;-63
2022/06/01 01:16:06;;;;;;;;;;;;;;;12.98;59.61;96678.44;30001;982;1881;-56
2022/06/01 01:16:37;;;;;;;;;;;;;;;12.97;59.77;96674.12;30001;982;1877;-63
2022/06/01 01:17:11;;;;;;;;;;;;;;;12.97;59.78;96674.12;30001;982;1882;-62
2022/06/01 01:17:42;;;;;;;;;;;;;;;12.96;59.96;96678.75;30001;982;1877;-61
2022/06/01 01:18:17;;;;;;;;;;;;;;;12.98;59.55;96681.16;30001;983;1872;-62
2022/06/01 01:18:51;;;;;;;;;;;;;;;12.97;59.41;96676.84;30001;983;1859;-56
2022/06/01 01:19:43;;;;;;;;;;;;;;;12.98;59.24;96681.97;30001;983;1885;-56
2022/06/01 01:20:14;;;;;;;;;;;;;;;12.97;59.43;96679.56;30001;983;1881;-56
2022/06/01 01:20:56;;;;;;;;;;;;;;;12.97;59.13;96679.56;30001;983;1873;-56
2022/06/01 01:21:33;;;;;;;;;;;;;;;12.95;60.51;96685.31;30001;983;1873;-56
2022/06/01 01:22:26;;;;;;;;;;;;;;;12.95;59.84;96688.03;30001;983;1886;-56
2022/06/01 01:23:17;;;;;;;;;;;;;;;12.95;59.85;96684.53;30001;982;1864;-63
2022/06/01 01:23:52;;;;;;;;;;;;;;;12.94;59.83;96677.47;30001;982;1873;-55
2022/06/01 01:24:43;;;;;;;;;;;;;;;12.93;60.00;96679.38;30001;982;1869;-62
2022/06/01 01:25:18;;;;;;;;;;;;;;;12.92;59.95;96677.78;30001;982;1873;-56
2022/06/01 01:25:49;;;;;;;;;;;;;;;12.90;60.05;96680.00;30001;983;1881;-63
2022/06/01 01:26:22;;;;;;;;;;;;;;;12.92;60.12;96682.41;30001;983;1885;-57
2022/06/01 01:26:53;;;;;;;;;;;;;;;12.93;59.66;96684.84;30001;983;1868;-56
2022/06/01 01:27:27;;;;;;;;;;;;;;;12.93;59.88;96673.94;30001;983;1877;-63
2022/06/01 01:27:59;;;;;;;;;;;;;;;12.94;59.57;96672.81;30001;983;1881;-62
2022/06/01 01:28:30;;;;;;;;;;;;;;;12.93;59.66;96673.13;30001;983;1886;-62
2022/06/01 01:29:09;;;;;;;;;;;;;;;12.92;59.27;96676.97;30001;983;1881;-62
2022/06/01 01:29:41;;;;;;;;;;;;;;;12.92;59.64;96677.78;30001;983;1872;-63
2022/06/01 01:30:47;;;;;;;;;;;;;;;12.91;59.33;96670.72;30001;983;1873;-62
2022/06/01 01:31:19;;;;;;;;;;;;;;;12.91;59.56;96678.87;30001;982;1881;-56
2022/06/01 01:31:50;;;;;;;;;;;;;;;12.91;59.76;96669.91;30001;982;1882;-57
2022/06/01 01:32:20;;;;;;;;;;;;;;;12.95;59.40;96687.25;30001;986;1877;-63
2022/06/01 01:32:51;;;;;;;;;;;;;;;12.93;59.34;96678.59;30001;982;1885;-62
2022/06/01 01:33:25;;;;;;;;;;;;;;;12.93;59.53;96675.84;30001;983;1881;-56
2022/06/01 01:33:59;;;;;;;;;;;;;;;12.92;59.75;96679.69;30001;983;1885;-56
2022/06/01 01:34:29;;;;;;;;;;;;;;;12.91;59.76;96680.81;30001;983;1868;-64
2022/06/01 01:35:00;;;;;;;;;;;;;;;12.90;59.38;96679.19;30001;986;1877;-57
2022/06/01 01:35:31;;;;;;;;;;;;;;;12.90;60.08;96681.94;30001;983;1881;-56
2022/06/01 01:36:05;;;;;;;;;;;;;;;12.87;59.92;96677.91;30001;983;1886;-63
2022/06/01 01:36:40;;;;;;;;;;;;;;;12.89;59.70;96680.31;30001;983;1881;-63
2022/06/01 01:37:16;;;;;;;;;;;;;;;12.87;59.78;96679.81;30001;983;1886;-62
2022/06/01 01:37:48;;;;;;;;;;;;;;;12.87;59.94;96674.38;30001;983;1882;-62
2022/06/01 01:38:32;;;;;;;;;;;;;;;12.84;60.16;96675.81;30001;982;1886;-55
2022/06/01 01:39:09;;;;;;;;;;;;;;;12.82;60.08;96677.25;30001;982;1882;-63
2022/06/01 01:39:42;;;;;;;;;;;;;;;12.81;60.17;96675.66;30001;982;1873;-61
2022/06/01 01:40:13;;;;;;;;;;;;;;;12.78;60.27;96676.28;30001;982;1873;-62
2022/06/01 01:40:44;;;;;;;;;;;;;;;12.75;60.43;96678.50;30001;983;1885;-63
2022/06/01 01:41:19;;;;;;;;;;;;;;;12.74;60.86;96676.09;30001;983;1881;-62
2022/06/01 01:41:51;;;;;;;;;;;;;;;12.72;60.77;96673.69;30001;979;1889;-63
2022/06/01 01:42:22;;;;;;;;;;;;;;;12.71;61.27;96680.25;30001;983;1868;-62
2022/06/01 01:42:54;;;;;;;;;;;;;;;12.70;60.57;96673.19;30001;983;1877;-63
2022/06/01 01:43:25;;;;;;;;;;;;;;;12.71;60.67;96677.50;30001;983;1881;-63
2022/06/01 01:44:14;;;;;;;;;;;;;;;12.72;60.53;96672.88;30001;983;1886;-62
2022/06/01 01:45:07;;;;;;;;;;;;;;;12.73;60.61;96669.84;30001;982;1873;-57
2022/06/01 01:45:38;;;;;;;;;;;;;;;12.71;60.47;96674.78;30001;982;1868;-63
2022/06/01 01:46:12;;;;;;;;;;;;;;;12.71;60.44;96674.00;30001;982;1873;-63
2022/06/01 01:46:47;;;;;;;;;;;;;;;12.70;60.44;96669.66;30001;982;1886;-57
2022/06/01 01:47:18;;;;;;;;;;;;;;;12.69;60.55;96668.06;30001;982;1882;-55
2022/06/01 01:47:49;;;;;;;;;;;;;;;12.68;60.22;96675.41;30001;982;1886;-62
2022/06/01 01:48:20;;;;;;;;;;;;;;;12.67;61.58;96676.53;30001;983;1881;-63
2022/06/01 01:48:52;;;;;;;;;;;;;;;12.66;61.34;96672.19;30002;813;1015;-63
2022/06/01 01:49:24;;;;;;;;;;;;;;;12.66;60.87;96680.38;30001;983;1881;-62
2022/06/01 01:49:58;;;;;;;;;;;;;;;12.66;60.94;96674.91;30001;983;1872;-61
2022/06/01 01:50:29;;;;;;;;;;;;;;;12.70;60.33;96675.91;30001;983;1873;-61
2022/06/01 01:51:00;;;;;;;;;;;;;;;12.71;60.21;96669.34;30001;983;1886;-61
2022/06/01 01:51:31;;;;;;;;;;;;;;;12.70;60.57;96675.91;30001;983;1882;-56
2022/06/01 01:52:05;;;;;;;;;;;;;;;12.70;60.17;96673.19;30001;983;1886;-62
2022/06/01 01:52:36;;;;;;;;;;;;;;;12.71;60.58;96669.34;30001;982;1881;-61
2022/06/01 01:53:07;;;;;;;;;;;;;;;12.69;60.40;96671.56;30001;982;1886;-63
2022/06/01 01:53:39;;;;;;;;;;;;;;;12.69;60.42;96678.94;30002;982;1881;-62
2022/06/01 01:54:30;;;;;;;;;;;;;;;12.69;60.45;96677.03;30002;982;1873;-62
2022/06/01 01:55:24;;;;;;;;;;;;;;;12.69;60.42;96679.75;30002;982;1763;-61
2022/06/01 01:56:14;;;;;;;;;;;;;;;12.70;60.20;96675.91;30002;983;1872;-63
2022/06/01 01:56:56;;;;;;;;;;;;;;;12.70;60.42;96677.81;30002;983;1868;-56
2022/06/01 01:57:34;;;;;;;;;;;;;;;12.69;60.28;96679.75;30002;983;1886;-63
2022/06/01 01:58:14;;;;;;;;;;;;;;;12.69;60.78;96678.94;30002;983;1881;-64
2022/06/01 01:59:13;;;;;;;;;;;;;;;12.68;60.96;96678.13;30002;983;1886;-62
2022/06/01 01:59:57;;;;;;;;;;;;;;;12.69;60.65;96679.75;30002;983;1877;-63
2022/06/01 02:00:35;;;;;;;;;;;;;;;12.70;60.60;96678.63;30002;982;1886;-63
2022/06/01 02:01:13;;;;;;;;;;;;;;;12.70;60.67;96675.91;30002;982;1868;-63
2022/06/01 02:01:56;;;;;;;;;;;;;;;12.68;60.88;96667.25;30002;982;1877;-61
2022/06/01 02:02:52;;;;;;;;;;;;;;;12.69;60.75;96663.41;30002;982;1882;-63
2022/06/01 02:03:36;;;;;;;;;;;;;;;12.69;61.27;96679.75;30002;983;1870;-64
2022/06/01 02:06:44;;;;;;;;;;;;;;;12.64;61.12;96677.16;30002;983;1868;-63
2022/06/01 02:07:20;;;;;;;;;;;;;;;12.64;61.01;96681.78;30002;962;1894;-64
2022/06/01 02:08:02;;;;;;;;;;;;;;;12.64;61.21;96679.88;30002;982;1868;-64
2022/06/01 02:08:48;;;;;;;;;;;;;;;12.64;60.70;96679.88;30002;982;1877;-63
2022/06/01 02:09:19;;;;;;;;;;;;;;;12.64;60.51;96679.06;30002;982;1881;-57
2022/06/01 02:12:42;;;;;;;;;;;;;;;12.62;61.25;96679.38;30002;983;1881;-63
2022/06/01 02:13:13;;;;;;;;;;;;;;;12.62;61.20;96689.47;30002;983;1873;-63
2022/06/01 02:13:45;;;;;;;;;;;;;;;12.62;60.82;96684.81;30002;983;1873;-63
2022/06/01 02:14:19;;;;;;;;;;;;;;;12.63;60.59;96686.44;30002;983;1886;-63
2022/06/01 02:14:53;;;;;;;;;;;;;;;12.63;61.39;96685.63;30002;983;1881;-62
2022/06/01 02:15:28;;;;;;;;;;;;;;;12.62;61.64;96694.91;30002;982;1886;-63
2022/06/01 02:16:00;;;;;;;;;;;;;;;12.60;62.24;96700.66;30002;982;1882;-62
2022/06/01 02:16:33;;;;;;;;;;;;;;;12.57;62.74;96701.28;30002;982;1886;-63
2022/06/01 02:17:06;;;;;;;;;;;;;;;12.54;62.59;96693.72;30002;982;1882;-63
2022/06/01 02:17:48;;;;;;;;;;;;;;;12.53;61.99;96694.03;30002;983;1885;-62
2022/06/01 02:18:25;;;;;;;;;;;;;;;12.51;62.21;96694.34;30002;983;1868;-61
2022/06/01 02:18:58;;;;;;;;;;;;;;;12.49;63.09;96691.13;30002;983;1876;-61
2022/06/01 02:19:32;;;;;;;;;;;;;;;12.47;62.42;96690.66;30002;983;1881;-62
2022/06/01 02:20:10;;;;;;;;;;;;;;;12.47;62.46;96692.56;30002;983;1885;-63
2022/06/01 02:20:43;;;;;;;;;;;;;;;12.45;63.04;96686.63;30002;983;1881;-57
2022/06/01 02:21:17;;;;;;;;;;;;;;;12.42;62.58;96679.88;30002;983;1886;-62
2022/06/01 02:21:48;;;;;;;;;;;;;;;12.42;62.76;96677.16;30002;983;1881;-62
2022/06/01 02:22:19;;;;;;;;;;;;;;;12.42;62.58;96679.88;30002;983;1873;-63
2022/06/01 02:22:50;;;;;;;;;;;;;;;12.41;61.95;96679.09;30002;982;1860;-64
2022/06/01 02:23:22;;;;;;;;;;;;;;;12.41;61.74;96678.28;30002;982;1886;-63
2022/06/01 02:23:53;;;;;;;;;;;;;;;12.42;62.16;96674.44;30002;982;1882;-63
2022/06/01 02:24:25;;;;;;;;;;;;;;;12.43;62.30;96676.06;30002;982;1886;-63
2022/06/01 02:24:55;;;;;;;;;;;;;;;12.44;62.21;96674.94;30002;982;1882;-55
2022/06/01 02:25:30;;;;;;;;;;;;;;;12.46;61.77;96682.81;30002;983;1885;-62
2022/06/01 02:26:02;;;;;;;;;;;;;;;12.46;62.46;96680.09;30002;983;1868;-63
2022/06/01 02:26:33;;;;;;;;;;;;;;;12.43;62.74;96680.69;30002;983;1876;-62
2022/06/01 02:27:05;;;;;;;;;;;;;;;12.41;63.05;96681.00;30002;983;1881;-63
2022/06/01 02:27:37;;;;;;;;;;;;;;;12.39;62.81;96675.06;30002;983;1885;-63
2022/06/01 02:28:09;;;;;;;;;;;;;;;12.40;62.49;96679.41;30002;983;1881;-62
2022/06/01 02:28:41;;;;;;;;;;;;;;;12.40;61.88;96672.03;30002;983;1886;-61
2022/06/01 02:29:16;;;;;;;;;;;;;;;12.41;62.22;96678.28;30002;987;1881;-62
2022/06/01 02:30:00;;;;;;;;;;;;;;;12.39;62.14;96670.44;30002;983;1886;-63
2022/06/01 02:30:32;;;;;;;;;;;;;;;12.40;62.00;96677.47;30002;982;1882;-62
2022/06/01 02:31:04;;;;;;;;;;;;;;;12.41;62.04;96673.66;30002;982;1873;-63
2022/06/01 02:31:35;;;;;;;;;;;;;;;12.41;61.90;96672.84;30002;982;1873;-62
2022/06/01 02:32:09;;;;;;;;;;;;;;;12.40;61.90;96673.94;30002;982;1886;-55
2022/06/01 02:32:41;;;;;;;;;;;;;;;12.40;61.83;96669.31;30002;983;1868;-62
2022/06/01 02:33:17;;;;;;;;;;;;;;;12.39;62.57;96677.78;30002;983;1877;-62
2022/06/01 02:33:49;;;;;;;;;;;;;;;12.39;62.58;96675.06;30002;983;1881;-63
2022/06/01 02:34:21;;;;;;;;;;;;;;;12.40;62.53;96676.69;30002;983;1885;-62
2022/06/01 02:34:54;;;;;;;;;;;;;;;12.38;63.21;96670.72;30002;983;1881;-62
2022/06/01 02:35:26;;;;;;;;;;;;;;;12.37;62.69;96671.84;30002;983;1872;-60
2022/06/01 02:35:58;;;;;;;;;;;;;;;12.37;62.58;96669.94;30002;983;1860;-61
2022/06/01 02:36:30;;;;;;;;;;;;;;;12.37;62.41;96671.84;30002;983;1886;-63
2022/06/01 02:37:04;;;;;;;;;;;;;;;12.37;62.75;96674.56;30002;983;1881;-63
2022/06/01 02:37:39;;;;;;;;;;;;;;;12.35;62.73;96674.88;30002;983;1886;-62
2022/06/01 02:38:13;;;;;;;;;;;;;;;12.35;62.53;96674.06;30002;982;1868;-63
2022/06/01 02:38:46;;;;;;;;;;;;;;;12.34;62.61;96669.75;30002;982;1877;-63
2022/06/01 02:39:17;;;;;;;;;;;;;;;12.33;63.10;96670.84;30002;982;1882;-62
2022/06/01 02:39:52;;;;;;;;;;;;;;;12.32;63.16;96674.69;30002;982;1886;-63
2022/06/01 02:40:24;;;;;;;;;;;;;;;12.31;63.76;96675.81;30002;983;1868;-63
2022/06/01 02:40:54;;;;;;;;;;;;;;;12.28;63.65;96673.69;30002;983;1876;-64
2022/06/01 02:42:30;;;;;;;;;;;;;;;12.22;63.34;96670.28;30002;983;1886;-59
2022/06/01 02:43:01;;;;;;;;;;;;;;;12.22;63.54;96674.94;30002;983;1881;-65
2022/06/01 02:43:47;;;;;;;;;;;;;;;12.22;63.80;96680.38;30002;983;1873;-56
2022/06/01 02:44:18;;;;;;;;;;;;;;;12.21;63.71;96673.31;30002;983;1872;-63
2022/06/01 02:44:53;;;;;;;;;;;;;;;12.17;64.44;96684.00;30001;982;1886;-63
2022/06/01 02:45:25;;;;;;;;;;;;;;;12.18;64.28;96679.38;30001;982;1881;-63
2022/06/01 02:45:57;;;;;;;;;;;;;;;12.17;64.15;96680.47;30001;982;1886;-56
2022/06/01 02:46:28;;;;;;;;;;;;;;;12.15;64.25;96679.97;30001;982;1882;-64
2022/06/01 02:46:59;;;;;;;;;;;;;;;12.13;64.22;96676.78;30001;982;1886;-63
2022/06/01 02:47:31;;;;;;;;;;;;;;;12.13;64.55;96680.28;30001;982;1882;-63
2022/06/01 02:48:04;;;;;;;;;;;;;;;12.11;64.53;96674.38;30001;983;1872;-63
2022/06/01 02:48:35;;;;;;;;;;;;;;;12.08;64.81;96673.06;30001;983;1872;-62
2022/06/01 02:49:07;;;;;;;;;;;;;;;12.05;64.63;96670.97;30001;983;1885;-63
2022/06/01 02:49:38;;;;;;;;;;;;;;;12.05;64.93;96676.41;30001;983;1881;-57
2022/06/01 02:50:11;;;;;;;;;;;;;;;12.04;64.73;96672.09;30001;983;1885;-57
2022/06/01 02:50:43;;;;;;;;;;;;;;;12.03;64.78;96678.63;30001;983;1881;-61
2022/06/01 02:51:15;;;;;;;;;;;;;;;12.01;64.85;96678.13;30001;983;1886;-57
2022/06/01 02:51:49;;;;;;;;;;;;;;;12.00;65.31;96681.16;30001;983;1868;-62
2022/06/01 02:52:20;;;;;;;;;;;;;;;11.99;65.49;96676.81;30001;982;1864;-63
2022/06/01 02:52:51;;;;;;;;;;;;;;;11.99;65.53;96679.53;30001;982;1882;-62
2022/06/01 02:53:22;;;;;;;;;;;;;;;11.99;65.68;96683.06;30001;982;1886;-62
2022/06/01 02:53:53;;;;;;;;;;;;;;;11.97;65.59;96679.84;30001;982;1882;-63
2022/06/01 02:54:23;;;;;;;;;;;;;;;11.96;65.53;96680.16;30001;982;1886;-62
2022/06/01 02:54:54;;;;;;;;;;;;;;;11.97;66.10;96679.84;30001;982;1882;-62
2022/06/01 02:55:25;;;;;;;;;;;;;;;11.93;65.49;96676.13;30001;983;1885;-60
2022/06/01 02:55:57;;;;;;;;;;;;;;;11.94;66.05;96674.22;30001;983;1881;-62
2022/06/01 02:56:28;;;;;;;;;;;;;;;11.94;65.79;96685.09;30001;983;1872;-63
2022/06/01 02:56:59;;;;;;;;;;;;;;;11.92;66.38;96674.53;30001;983;1872;-62
2022/06/01 02:57:30;;;;;;;;;;;;;;;11.94;66.27;96677.75;30001;983;1886;-62
2022/06/01 02:58:01;;;;;;;;;;;;;;;11.95;66.00;96676.63;30001;983;1881;-62
2022/06/01 02:58:34;;;;;;;;;;;;;;;11.94;66.53;96679.66;30001;983;1872;-61
2022/06/01 02:59:05;;;;;;;;;;;;;;;11.93;66.57;96676.13;30001;983;1872;-63
2022/06/01 02:59:36;;;;;;;;;;;;;;;11.94;66.33;96679.66;30001;982;1886;-62
2022/06/01 03:00:09;;;;;;;;;;;;;;;11.95;66.39;96682.06;30001;982;1881;-62
2022/06/01 03:00:40;;;;;;;;;;;;;;;11.93;66.50;96678.84;30001;982;1886;-62
2022/06/01 03:01:11;;;;;;;;;;;;;;;11.92;66.34;96671.81;30001;982;1882;-61
2022/06/01 03:01:43;;;;;;;;;;;;;;;11.92;66.67;96674.53;30001;982;1886;-63
2022/06/01 03:02:14;;;;;;;;;;;;;;;11.88;67.71;96676.25;30001;982;1869;-62
2022/06/01 03:02:45;;;;;;;;;;;;;;;11.86;67.69;96677.66;30001;982;1877;-61
2022/06/01 03:03:18;;;;;;;;;;;;;;;11.84;67.26;96680.69;30001;983;1881;-63
2022/06/01 03:03:49;;;;;;;;;;;;;;;11.84;67.97;96677.97;30001;983;1885;-63
2022/06/01 03:04:19;;;;;;;;;;;;;;;11.85;67.40;96676.06;30001;983;1881;-62
2022/06/01 03:04:53;;;;;;;;;;;;;;;11.84;67.50;96680.69;30001;983;1885;-62
2022/06/01 03:05:25;;;;;;;;;;;;;;;11.82;68.00;96685.63;30001;983;1881;-63
2022/06/01 03:05:58;;;;;;;;;;;;;;;11.81;67.86;96675.84;30001;983;1885;-63
2022/06/01 03:06:29;;;;;;;;;;;;;;;11.81;68.31;96683.19;30001;983;1868;-62
2022/06/01 03:07:02;;;;;;;;;;;;;;;11.79;68.71;96682.69;30001;982;1877;-63
2022/06/01 03:07:33;;;;;;;;;;;;;;;11.78;68.78;96676.50;30001;982;1881;-63
2022/06/01 03:08:04;;;;;;;;;;;;;;;11.76;68.09;96684.13;30003;335;1460;-63
2022/06/01 03:08:35;;;;;;;;;;;;;;;11.77;68.31;96677.59;30001;982;1882;-62